sensor_id;sensor_type;location;lat;lon;timestamp;P1;durP1;ratioP1;P2;durP2;ratioP2
78925;SDS011;68321;51.276;7.208;2023-05-10T00:02:17;6.03;;;2.67;;
78925;SDS011;68321;51.276;7.208;2023-05-10T00:04:43;4.43;;;2.75;;
78925;SDS011;68321;51.276;7.208;2023-05-10T00:07:08;4.35;;;2.67;;
78925;SDS011;68321;51.276;7.208;2023-05-10T00:09:35;7.35;;;3.22;;
78925;SDS011;68321;51.276;7.208;2023-05-10T00:12:00;4.88;;;2.80;;
78925;SDS011;68321;51.276;7.208;2023-05-10T00:14:25;6.13;;;3.83;;
78925;SDS011;68321;51.276;7.208;2023-05-10T00:16:51;5.32;;;3.30;;
78925;SDS011;68321;51.276;7.208;2023-05-10T00:19:16;5.07;;;3.33;;
78925;SDS011;68321;51.276;7.208;2023-05-10T00:21:42;5.63;;;3.67;;
78925;SDS011;68321;51.276;7.208;2023-05-10T00:24:07;6.50;;;4.00;;
78925;SDS011;68321;51.276;7.208;2023-05-10T00:26:32;6.07;;;4.05;;
78925;SDS011;68321;51.276;7.208;2023-05-10T00:28:58;6.50;;;3.93;;
78925;SDS011;68321;51.276;7.208;2023-05-10T00:31:23;5.53;;;3.67;;
78925;SDS011;68321;51.276;7.208;2023-05-10T00:33:48;5.25;;;3.13;;
78925;SDS011;68321;51.276;7.208;2023-05-10T00:36:14;6.33;;;3.43;;
78925;SDS011;68321;51.276;7.208;2023-05-10T00:38:39;6.38;;;4.18;;
78925;SDS011;68321;51.276;7.208;2023-05-10T00:41:05;5.57;;;3.70;;
78925;SDS011;68321;51.276;7.208;2023-05-10T00:43:31;6.88;;;4.28;;
78925;SDS011;68321;51.276;7.208;2023-05-10T00:45:56;8.05;;;4.53;;
78925;SDS011;68321;51.276;7.208;2023-05-10T00:48:22;6.05;;;3.85;;
78925;SDS011;68321;51.276;7.208;2023-05-10T00:50:48;6.20;;;3.95;;
78925;SDS011;68321;51.276;7.208;2023-05-10T00:53:13;5.78;;;3.80;;
78925;SDS011;68321;51.276;7.208;2023-05-10T00:55:39;8.18;;;4.65;;
78925;SDS011;68321;51.276;7.208;2023-05-10T00:58:04;6.88;;;4.15;;
78925;SDS011;68321;51.276;7.208;2023-05-10T01:00:30;6.07;;;3.75;;
78925;SDS011;68321;51.276;7.208;2023-05-10T01:02:55;6.93;;;4.40;;
78925;SDS011;68321;51.276;7.208;2023-05-10T01:05:21;6.82;;;4.22;;
78925;SDS011;68321;51.276;7.208;2023-05-10T01:07:46;5.47;;;3.53;;
78925;SDS011;68321;51.276;7.208;2023-05-10T01:10:11;8.50;;;4.35;;
78925;SDS011;68321;51.276;7.208;2023-05-10T01:12:38;6.65;;;4.18;;
78925;SDS011;68321;51.276;7.208;2023-05-10T01:15:05;5.47;;;3.33;;
78925;SDS011;68321;51.276;7.208;2023-05-10T01:17:31;5.70;;;3.17;;
78925;SDS011;68321;51.276;7.208;2023-05-10T01:19:57;6.78;;;3.85;;
78925;SDS011;68321;51.276;7.208;2023-05-10T01:27:39;6.95;;;4.60;;
78925;SDS011;68321;51.276;7.208;2023-05-10T01:30:33;8.32;;;4.07;;
78925;SDS011;68321;51.276;7.208;2023-05-10T01:44:15;7.53;;;4.40;;
78925;SDS011;68321;51.276;7.208;2023-05-10T01:46:43;5.78;;;4.00;;
78925;SDS011;68321;51.276;7.208;2023-05-10T01:49:24;7.93;;;4.82;;
78925;SDS011;68321;51.276;7.208;2023-05-10T01:51:52;7.93;;;5.28;;
78925;SDS011;68321;51.276;7.208;2023-05-10T01:54:22;8.15;;;5.57;;
78925;SDS011;68321;51.276;7.208;2023-05-10T01:56:56;9.77;;;6.30;;
78925;SDS011;68321;51.276;7.208;2023-05-10T01:59:27;8.57;;;5.05;;
78925;SDS011;68321;51.276;7.208;2023-05-10T02:01:54;8.50;;;5.75;;
78925;SDS011;68321;51.276;7.208;2023-05-10T02:04:22;7.55;;;5.32;;
78925;SDS011;68321;51.276;7.208;2023-05-10T02:06:48;8.00;;;4.90;;
78925;SDS011;68321;51.276;7.208;2023-05-10T02:09:14;8.02;;;5.10;;
78925;SDS011;68321;51.276;7.208;2023-05-10T02:11:41;7.78;;;5.28;;
78925;SDS011;68321;51.276;7.208;2023-05-10T02:14:08;5.40;;;3.67;;
78925;SDS011;68321;51.276;7.208;2023-05-10T02:16:34;6.95;;;4.30;;
78925;SDS011;68321;51.276;7.208;2023-05-10T02:19:00;5.40;;;3.75;;
78925;SDS011;68321;51.276;7.208;2023-05-10T02:21:26;6.05;;;3.88;;
78925;SDS011;68321;51.276;7.208;2023-05-10T02:23:53;5.63;;;3.88;;
78925;SDS011;68321;51.276;7.208;2023-05-10T02:26:19;8.10;;;4.47;;
78925;SDS011;68321;51.276;7.208;2023-05-10T02:28:46;5.60;;;3.40;;
78925;SDS011;68321;51.276;7.208;2023-05-10T02:31:11;5.60;;;3.20;;
78925;SDS011;68321;51.276;7.208;2023-05-10T02:33:38;7.43;;;3.78;;
78925;SDS011;68321;51.276;7.208;2023-05-10T02:36:04;5.63;;;3.75;;
78925;SDS011;68321;51.276;7.208;2023-05-10T02:38:31;6.38;;;4.10;;
78925;SDS011;68321;51.276;7.208;2023-05-10T02:40:57;5.60;;;3.28;;
78925;SDS011;68321;51.276;7.208;2023-05-10T02:43:24;6.05;;;3.92;;
78925;SDS011;68321;51.276;7.208;2023-05-10T02:45:49;4.90;;;3.28;;
78925;SDS011;68321;51.276;7.208;2023-05-10T02:48:15;6.10;;;3.87;;
78925;SDS011;68321;51.276;7.208;2023-05-10T02:50:42;4.60;;;3.45;;
78925;SDS011;68321;51.276;7.208;2023-05-10T02:53:09;5.80;;;3.75;;
78925;SDS011;68321;51.276;7.208;2023-05-10T02:55:38;4.93;;;3.58;;
78925;SDS011;68321;51.276;7.208;2023-05-10T02:58:05;5.05;;;3.65;;
78925;SDS011;68321;51.276;7.208;2023-05-10T03:00:30;6.13;;;4.28;;
78925;SDS011;68321;51.276;7.208;2023-05-10T03:02:57;7.90;;;4.22;;
78925;SDS011;68321;51.276;7.208;2023-05-10T03:05:22;6.47;;;4.40;;
78925;SDS011;68321;51.276;7.208;2023-05-10T03:07:48;7.20;;;5.03;;
78925;SDS011;68321;51.276;7.208;2023-05-10T03:10:14;6.28;;;4.05;;
78925;SDS011;68321;51.276;7.208;2023-05-10T03:12:48;7.70;;;4.70;;
78925;SDS011;68321;51.276;7.208;2023-05-10T03:18:22;7.28;;;4.57;;
78925;SDS011;68321;51.276;7.208;2023-05-10T03:20:50;8.55;;;5.72;;
78925;SDS011;68321;51.276;7.208;2023-05-10T03:25:45;7.47;;;5.28;;
78925;SDS011;68321;51.276;7.208;2023-05-10T03:28:12;7.93;;;5.70;;
78925;SDS011;68321;51.276;7.208;2023-05-10T03:30:37;7.57;;;5.60;;
78925;SDS011;68321;51.276;7.208;2023-05-10T03:33:06;8.35;;;5.43;;
78925;SDS011;68321;51.276;7.208;2023-05-10T03:35:32;8.82;;;5.90;;
78925;SDS011;68321;51.276;7.208;2023-05-10T03:37:57;6.82;;;4.53;;
78925;SDS011;68321;51.276;7.208;2023-05-10T03:40:23;9.43;;;5.47;;
78925;SDS011;68321;51.276;7.208;2023-05-10T03:42:48;9.15;;;5.80;;
78925;SDS011;68321;51.276;7.208;2023-05-10T03:45:14;8.10;;;5.25;;
78925;SDS011;68321;51.276;7.208;2023-05-10T03:47:40;8.93;;;5.60;;
78925;SDS011;68321;51.276;7.208;2023-05-10T03:50:05;10.63;;;6.00;;
78925;SDS011;68321;51.276;7.208;2023-05-10T03:52:31;9.02;;;5.75;;
78925;SDS011;68321;51.276;7.208;2023-05-10T03:54:57;9.00;;;6.07;;
78925;SDS011;68321;51.276;7.208;2023-05-10T03:57:22;8.65;;;5.90;;
78925;SDS011;68321;51.276;7.208;2023-05-10T03:59:47;13.60;;;6.50;;
78925;SDS011;68321;51.276;7.208;2023-05-10T04:02:13;9.27;;;6.35;;
78925;SDS011;68321;51.276;7.208;2023-05-10T04:04:38;10.47;;;6.73;;
78925;SDS011;68321;51.276;7.208;2023-05-10T04:07:03;10.87;;;6.63;;
78925;SDS011;68321;51.276;7.208;2023-05-10T04:09:29;12.53;;;7.80;;
78925;SDS011;68321;51.276;7.208;2023-05-10T04:11:54;16.50;;;7.63;;
78925;SDS011;68321;51.276;7.208;2023-05-10T04:14:20;13.80;;;8.38;;
78925;SDS011;68321;51.276;7.208;2023-05-10T04:16:45;15.85;;;9.10;;
78925;SDS011;68321;51.276;7.208;2023-05-10T04:19:10;15.43;;;9.07;;
78925;SDS011;68321;51.276;7.208;2023-05-10T04:21:36;13.10;;;8.20;;
78925;SDS011;68321;51.276;7.208;2023-05-10T04:24:01;18.83;;;9.63;;
78925;SDS011;68321;51.276;7.208;2023-05-10T04:26:27;16.13;;;9.23;;
78925;SDS011;68321;51.276;7.208;2023-05-10T04:28:52;16.45;;;8.45;;
78925;SDS011;68321;51.276;7.208;2023-05-10T04:31:17;17.03;;;9.47;;
78925;SDS011;68321;51.276;7.208;2023-05-10T04:33:43;16.13;;;9.10;;
78925;SDS011;68321;51.276;7.208;2023-05-10T04:36:08;18.00;;;9.93;;
78925;SDS011;68321;51.276;7.208;2023-05-10T04:38:34;15.55;;;9.30;;
78925;SDS011;68321;51.276;7.208;2023-05-10T04:41:06;17.80;;;9.50;;
78925;SDS011;68321;51.276;7.208;2023-05-10T04:43:32;17.02;;;8.57;;
78925;SDS011;68321;51.276;7.208;2023-05-10T04:45:57;18.42;;;10.55;;
78925;SDS011;68321;51.276;7.208;2023-05-10T04:48:22;19.13;;;10.53;;
78925;SDS011;68321;51.276;7.208;2023-05-10T04:50:48;18.30;;;9.95;;
78925;SDS011;68321;51.276;7.208;2023-05-10T04:53:13;19.03;;;11.03;;
78925;SDS011;68321;51.276;7.208;2023-05-10T04:55:39;23.45;;;12.05;;
78925;SDS011;68321;51.276;7.208;2023-05-10T04:58:04;25.43;;;12.43;;
78925;SDS011;68321;51.276;7.208;2023-05-10T05:00:29;23.90;;;12.73;;
78925;SDS011;68321;51.276;7.208;2023-05-10T05:02:55;24.00;;;13.32;;
78925;SDS011;68321;51.276;7.208;2023-05-10T05:05:20;24.40;;;14.20;;
78925;SDS011;68321;51.276;7.208;2023-05-10T05:07:45;26.40;;;12.85;;
78925;SDS011;68321;51.276;7.208;2023-05-10T05:10:11;27.13;;;14.23;;
78925;SDS011;68321;51.276;7.208;2023-05-10T05:12:36;22.70;;;13.10;;
78925;SDS011;68321;51.276;7.208;2023-05-10T05:15:02;24.37;;;13.23;;
78925;SDS011;68321;51.276;7.208;2023-05-10T05:17:29;25.02;;;13.27;;
78925;SDS011;68321;51.276;7.208;2023-05-10T05:19:55;21.25;;;13.18;;
78925;SDS011;68321;51.276;7.208;2023-05-10T05:22:20;25.38;;;13.63;;
78925;SDS011;68321;51.276;7.208;2023-05-10T05:24:52;21.67;;;13.40;;
78925;SDS011;68321;51.276;7.208;2023-05-10T05:27:18;27.30;;;13.68;;
78925;SDS011;68321;51.276;7.208;2023-05-10T05:29:45;24.23;;;13.77;;
78925;SDS011;68321;51.276;7.208;2023-05-10T05:32:11;23.77;;;12.98;;
78925;SDS011;68321;51.276;7.208;2023-05-10T05:34:36;24.63;;;13.30;;
78925;SDS011;68321;51.276;7.208;2023-05-10T05:37:02;27.70;;;15.47;;
78925;SDS011;68321;51.276;7.208;2023-05-10T05:39:27;23.57;;;14.67;;
78925;SDS011;68321;51.276;7.208;2023-05-10T05:41:52;26.65;;;14.32;;
78925;SDS011;68321;51.276;7.208;2023-05-10T05:44:18;29.80;;;14.57;;
78925;SDS011;68321;51.276;7.208;2023-05-10T05:46:43;27.03;;;14.30;;
78925;SDS011;68321;51.276;7.208;2023-05-10T05:49:08;29.97;;;14.10;;
78925;SDS011;68321;51.276;7.208;2023-05-10T05:51:34;28.20;;;13.48;;
78925;SDS011;68321;51.276;7.208;2023-05-10T05:54:00;25.40;;;13.07;;
78925;SDS011;68321;51.276;7.208;2023-05-10T05:56:26;25.45;;;12.18;;
78925;SDS011;68321;51.276;7.208;2023-05-10T05:58:51;22.40;;;11.37;;
78925;SDS011;68321;51.276;7.208;2023-05-10T06:01:16;23.90;;;13.63;;
78925;SDS011;68321;51.276;7.208;2023-05-10T06:03:41;28.07;;;14.00;;
78925;SDS011;68321;51.276;7.208;2023-05-10T06:06:07;24.58;;;13.55;;
78925;SDS011;68321;51.276;7.208;2023-05-10T06:08:32;26.88;;;14.27;;
78925;SDS011;68321;51.276;7.208;2023-05-10T06:10:58;23.40;;;13.10;;
78925;SDS011;68321;51.276;7.208;2023-05-10T06:13:24;27.80;;;14.48;;
78925;SDS011;68321;51.276;7.208;2023-05-10T06:15:49;22.42;;;13.45;;
78925;SDS011;68321;51.276;7.208;2023-05-10T06:18:16;23.77;;;12.43;;
78925;SDS011;68321;51.276;7.208;2023-05-10T06:20:41;25.17;;;13.40;;
78925;SDS011;68321;51.276;7.208;2023-05-10T06:23:07;24.55;;;12.15;;
78925;SDS011;68321;51.276;7.208;2023-05-10T06:25:32;22.95;;;12.18;;
78925;SDS011;68321;51.276;7.208;2023-05-10T06:27:58;22.70;;;12.10;;
78925;SDS011;68321;51.276;7.208;2023-05-10T06:30:24;22.17;;;12.30;;
78925;SDS011;68321;51.276;7.208;2023-05-10T06:35:18;23.45;;;11.60;;
78925;SDS011;68321;51.276;7.208;2023-05-10T06:37:43;20.83;;;12.63;;
78925;SDS011;68321;51.276;7.208;2023-05-10T06:40:09;25.03;;;13.63;;
78925;SDS011;68321;51.276;7.208;2023-05-10T06:42:35;23.02;;;13.63;;
78925;SDS011;68321;51.276;7.208;2023-05-10T06:45:00;25.50;;;13.90;;
78925;SDS011;68321;51.276;7.208;2023-05-10T06:47:25;18.83;;;12.00;;
78925;SDS011;68321;51.276;7.208;2023-05-10T06:49:51;22.37;;;12.70;;
78925;SDS011;68321;51.276;7.208;2023-05-10T06:52:16;26.63;;;13.53;;
78925;SDS011;68321;51.276;7.208;2023-05-10T06:54:41;20.93;;;11.87;;
78925;SDS011;68321;51.276;7.208;2023-05-10T06:57:06;17.77;;;10.63;;
78925;SDS011;68321;51.276;7.208;2023-05-10T06:59:32;17.13;;;10.43;;
78925;SDS011;68321;51.276;7.208;2023-05-10T07:01:57;16.63;;;11.03;;
78925;SDS011;68321;51.276;7.208;2023-05-10T07:04:23;18.45;;;10.32;;
78925;SDS011;68321;51.276;7.208;2023-05-10T07:06:48;16.90;;;9.80;;
78925;SDS011;68321;51.276;7.208;2023-05-10T07:09:14;16.25;;;10.63;;
78925;SDS011;68321;51.276;7.208;2023-05-10T07:11:40;16.92;;;8.88;;
78925;SDS011;68321;51.276;7.208;2023-05-10T07:14:06;16.55;;;9.07;;
78925;SDS011;68321;51.276;7.208;2023-05-10T07:16:31;18.17;;;10.43;;
78925;SDS011;68321;51.276;7.208;2023-05-10T07:18:56;18.33;;;10.10;;
78925;SDS011;68321;51.276;7.208;2023-05-10T07:21:22;22.08;;;10.43;;
78925;SDS011;68321;51.276;7.208;2023-05-10T07:23:49;16.23;;;10.13;;
78925;SDS011;68321;51.276;7.208;2023-05-10T07:26:14;18.17;;;10.00;;
78925;SDS011;68321;51.276;7.208;2023-05-10T07:28:40;16.55;;;11.15;;
78925;SDS011;68321;51.276;7.208;2023-05-10T07:31:05;18.13;;;10.93;;
78925;SDS011;68321;51.276;7.208;2023-05-10T07:33:31;18.57;;;11.07;;
78925;SDS011;68321;51.276;7.208;2023-05-10T07:35:56;21.20;;;11.13;;
78925;SDS011;68321;51.276;7.208;2023-05-10T07:38:22;18.30;;;10.05;;
78925;SDS011;68321;51.276;7.208;2023-05-10T07:40:47;17.30;;;10.75;;
78925;SDS011;68321;51.276;7.208;2023-05-10T07:43:12;19.20;;;11.00;;
78925;SDS011;68321;51.276;7.208;2023-05-10T07:45:38;16.47;;;9.83;;
78925;SDS011;68321;51.276;7.208;2023-05-10T07:48:03;18.53;;;10.93;;
78925;SDS011;68321;51.276;7.208;2023-05-10T07:50:28;14.70;;;9.40;;
78925;SDS011;68321;51.276;7.208;2023-05-10T07:52:54;18.63;;;10.38;;
78925;SDS011;68321;51.276;7.208;2023-05-10T07:55:19;15.18;;;8.27;;
78925;SDS011;68321;51.276;7.208;2023-05-10T07:57:46;17.92;;;10.55;;
78925;SDS011;68321;51.276;7.208;2023-05-10T08:00:17;22.17;;;12.52;;
78925;SDS011;68321;51.276;7.208;2023-05-10T08:02:43;19.42;;;11.15;;
78925;SDS011;68321;51.276;7.208;2023-05-10T08:05:08;19.93;;;10.70;;
78925;SDS011;68321;51.276;7.208;2023-05-10T08:07:34;16.85;;;9.98;;
78925;SDS011;68321;51.276;7.208;2023-05-10T08:09:59;16.05;;;9.20;;
78925;SDS011;68321;51.276;7.208;2023-05-10T08:12:25;15.03;;;8.93;;
78925;SDS011;68321;51.276;7.208;2023-05-10T08:14:50;12.37;;;6.27;;
78925;SDS011;68321;51.276;7.208;2023-05-10T08:17:15;11.20;;;6.77;;
78925;SDS011;68321;51.276;7.208;2023-05-10T08:19:41;13.85;;;7.53;;
78925;SDS011;68321;51.276;7.208;2023-05-10T08:22:06;13.77;;;7.40;;
78925;SDS011;68321;51.276;7.208;2023-05-10T08:24:32;12.10;;;7.78;;
78925;SDS011;68321;51.276;7.208;2023-05-10T08:26:57;12.20;;;8.13;;
78925;SDS011;68321;51.276;7.208;2023-05-10T08:29:22;12.30;;;7.30;;
78925;SDS011;68321;51.276;7.208;2023-05-10T08:31:48;13.50;;;7.87;;
78925;SDS011;68321;51.276;7.208;2023-05-10T08:34:13;16.48;;;8.15;;
78925;SDS011;68321;51.276;7.208;2023-05-10T08:36:38;16.40;;;8.90;;
78925;SDS011;68321;51.276;7.208;2023-05-10T08:39:04;16.50;;;9.00;;
78925;SDS011;68321;51.276;7.208;2023-05-10T08:41:29;17.23;;;8.70;;
78925;SDS011;68321;51.276;7.208;2023-05-10T08:43:55;11.13;;;6.85;;
78925;SDS011;68321;51.276;7.208;2023-05-10T08:46:21;13.40;;;7.70;;
78925;SDS011;68321;51.276;7.208;2023-05-10T08:48:48;13.85;;;8.77;;
78925;SDS011;68321;51.276;7.208;2023-05-10T08:51:17;14.68;;;8.63;;
78925;SDS011;68321;51.276;7.208;2023-05-10T08:53:43;16.88;;;9.63;;
78925;SDS011;68321;51.276;7.208;2023-05-10T08:56:09;23.13;;;13.82;;
78925;SDS011;68321;51.276;7.208;2023-05-10T08:58:35;24.85;;;13.73;;
78925;SDS011;68321;51.276;7.208;2023-05-10T09:01:01;18.77;;;10.98;;
78925;SDS011;68321;51.276;7.208;2023-05-10T09:03:27;15.90;;;9.85;;
78925;SDS011;68321;51.276;7.208;2023-05-10T09:05:52;16.23;;;9.37;;
78925;SDS011;68321;51.276;7.208;2023-05-10T09:08:18;14.20;;;9.20;;
78925;SDS011;68321;51.276;7.208;2023-05-10T09:10:44;16.77;;;9.57;;
78925;SDS011;68321;51.276;7.208;2023-05-10T09:13:12;14.88;;;8.63;;
78925;SDS011;68321;51.276;7.208;2023-05-10T09:15:38;11.45;;;7.13;;
78925;SDS011;68321;51.276;7.208;2023-05-10T09:18:03;12.80;;;7.07;;
78925;SDS011;68321;51.276;7.208;2023-05-10T09:20:29;13.75;;;7.25;;
78925;SDS011;68321;51.276;7.208;2023-05-10T09:22:54;11.93;;;6.35;;
78925;SDS011;68321;51.276;7.208;2023-05-10T09:25:20;14.80;;;7.87;;
78925;SDS011;68321;51.276;7.208;2023-05-10T09:27:46;14.32;;;8.45;;
78925;SDS011;68321;51.276;7.208;2023-05-10T09:30:25;19.30;;;11.43;;
78925;SDS011;68321;51.276;7.208;2023-05-10T09:32:51;16.48;;;7.97;;
78925;SDS011;68321;51.276;7.208;2023-05-10T09:35:18;17.67;;;9.57;;
78925;SDS011;68321;51.276;7.208;2023-05-10T09:37:45;20.55;;;9.55;;
78925;SDS011;68321;51.276;7.208;2023-05-10T09:40:13;14.07;;;8.57;;
78925;SDS011;68321;51.276;7.208;2023-05-10T09:42:41;17.17;;;9.32;;
78925;SDS011;68321;51.276;7.208;2023-05-10T09:45:07;18.27;;;10.48;;
78925;SDS011;68321;51.276;7.208;2023-05-10T09:47:36;18.10;;;9.93;;
78925;SDS011;68321;51.276;7.208;2023-05-10T09:50:02;19.63;;;11.38;;
78925;SDS011;68321;51.276;7.208;2023-05-10T09:52:48;20.25;;;10.85;;
78925;SDS011;68321;51.276;7.208;2023-05-10T09:55:22;20.30;;;11.20;;
78925;SDS011;68321;51.276;7.208;2023-05-10T09:57:49;25.30;;;10.68;;
78925;SDS011;68321;51.276;7.208;2023-05-10T10:00:18;18.15;;;9.90;;
78925;SDS011;68321;51.276;7.208;2023-05-10T10:02:45;17.13;;;10.75;;
78925;SDS011;68321;51.276;7.208;2023-05-10T10:05:18;19.70;;;10.68;;
78925;SDS011;68321;51.276;7.208;2023-05-10T10:07:44;24.65;;;13.02;;
78925;SDS011;68321;51.276;7.208;2023-05-10T10:10:09;16.48;;;7.57;;
78925;SDS011;68321;51.276;7.208;2023-05-10T10:12:37;18.27;;;10.68;;
78925;SDS011;68321;51.276;7.208;2023-05-10T10:15:04;25.80;;;12.57;;
78925;SDS011;68321;51.276;7.208;2023-05-10T10:17:30;28.42;;;12.20;;
78925;SDS011;68321;51.276;7.208;2023-05-10T10:19:56;19.70;;;11.65;;
78925;SDS011;68321;51.276;7.208;2023-05-10T10:22:22;22.60;;;11.70;;
78925;SDS011;68321;51.276;7.208;2023-05-10T10:24:47;19.73;;;10.23;;
78925;SDS011;68321;51.276;7.208;2023-05-10T10:36:09;27.52;;;13.32;;
78925;SDS011;68321;51.276;7.208;2023-05-10T10:39:20;21.67;;;11.63;;
78925;SDS011;68321;51.276;7.208;2023-05-10T10:41:28;21.55;;;11.45;;
78925;SDS011;68321;51.276;7.208;2023-05-10T10:47:00;25.42;;;10.70;;
78925;SDS011;68321;51.276;7.208;2023-05-10T10:49:27;20.52;;;11.57;;
78925;SDS011;68321;51.276;7.208;2023-05-10T10:54:38;18.80;;;11.20;;
78925;SDS011;68321;51.276;7.208;2023-05-10T10:57:17;20.17;;;10.63;;
78925;SDS011;68321;51.276;7.208;2023-05-10T10:59:44;19.05;;;10.75;;
78925;SDS011;68321;51.276;7.208;2023-05-10T11:02:10;19.00;;;11.07;;
78925;SDS011;68321;51.276;7.208;2023-05-10T11:04:42;18.67;;;9.70;;
78925;SDS011;68321;51.276;7.208;2023-05-10T11:07:18;20.02;;;11.05;;
78925;SDS011;68321;51.276;7.208;2023-05-10T11:09:45;16.65;;;9.63;;
78925;SDS011;68321;51.276;7.208;2023-05-10T11:12:11;16.98;;;9.70;;
78925;SDS011;68321;51.276;7.208;2023-05-10T11:14:37;20.33;;;9.37;;
78925;SDS011;68321;51.276;7.208;2023-05-10T11:17:02;13.93;;;7.78;;
78925;SDS011;68321;51.276;7.208;2023-05-10T11:20:02;14.02;;;7.93;;
78925;SDS011;68321;51.276;7.208;2023-05-10T11:22:31;14.27;;;7.55;;
78925;SDS011;68321;51.276;7.208;2023-05-10T11:25:15;21.27;;;10.23;;
78925;SDS011;68321;51.276;7.208;2023-05-10T11:27:41;12.63;;;6.77;;
78925;SDS011;68321;51.276;7.208;2023-05-10T11:30:06;19.35;;;9.13;;
78925;SDS011;68321;51.276;7.208;2023-05-10T11:32:33;15.80;;;8.73;;
78925;SDS011;68321;51.276;7.208;2023-05-10T11:35:08;15.10;;;9.52;;
78925;SDS011;68321;51.276;7.208;2023-05-10T11:37:33;14.95;;;8.48;;
78925;SDS011;68321;51.276;7.208;2023-05-10T11:39:59;13.07;;;7.82;;
78925;SDS011;68321;51.276;7.208;2023-05-10T11:42:24;13.70;;;7.60;;
78925;SDS011;68321;51.276;7.208;2023-05-10T11:44:50;12.68;;;7.10;;
78925;SDS011;68321;51.276;7.208;2023-05-10T11:47:15;9.97;;;6.57;;
78925;SDS011;68321;51.276;7.208;2023-05-10T11:49:43;13.02;;;7.95;;
78925;SDS011;68321;51.276;7.208;2023-05-10T11:54:36;8.88;;;6.20;;
78925;SDS011;68321;51.276;7.208;2023-05-10T11:57:01;11.25;;;6.43;;
78925;SDS011;68321;51.276;7.208;2023-05-10T11:59:27;17.60;;;7.70;;
78925;SDS011;68321;51.276;7.208;2023-05-10T12:01:52;11.50;;;6.97;;
78925;SDS011;68321;51.276;7.208;2023-05-10T12:04:18;12.23;;;7.38;;
78925;SDS011;68321;51.276;7.208;2023-05-10T12:06:43;13.60;;;6.88;;
78925;SDS011;68321;51.276;7.208;2023-05-10T12:09:09;12.07;;;6.65;;
78925;SDS011;68321;51.276;7.208;2023-05-10T12:11:39;10.63;;;5.43;;
78925;SDS011;68321;51.276;7.208;2023-05-10T12:14:05;19.60;;;11.70;;
78925;SDS011;68321;51.276;7.208;2023-05-10T12:16:30;14.50;;;8.70;;
78925;SDS011;68321;51.276;7.208;2023-05-10T12:18:57;14.23;;;8.45;;
78925;SDS011;68321;51.276;7.208;2023-05-10T12:21:23;14.15;;;8.75;;
78925;SDS011;68321;51.276;7.208;2023-05-10T12:23:52;12.45;;;8.18;;
78925;SDS011;68321;51.276;7.208;2023-05-10T12:26:22;12.60;;;8.25;;
78925;SDS011;68321;51.276;7.208;2023-05-10T12:28:51;11.48;;;7.53;;
78925;SDS011;68321;51.276;7.208;2023-05-10T12:31:17;15.35;;;8.85;;
78925;SDS011;68321;51.276;7.208;2023-05-10T12:33:43;13.32;;;8.80;;
78925;SDS011;68321;51.276;7.208;2023-05-10T12:36:10;15.30;;;8.65;;
78925;SDS011;68321;51.276;7.208;2023-05-10T12:38:37;18.77;;;8.85;;
78925;SDS011;68321;51.276;7.208;2023-05-10T12:41:04;14.18;;;7.90;;
78925;SDS011;68321;51.276;7.208;2023-05-10T12:43:31;16.20;;;10.07;;
78925;SDS011;68321;51.276;7.208;2023-05-10T12:45:57;16.80;;;10.05;;
78925;SDS011;68321;51.276;7.208;2023-05-10T12:48:23;15.90;;;9.57;;
78925;SDS011;68321;51.276;7.208;2023-05-10T12:50:48;17.87;;;11.10;;
78925;SDS011;68321;51.276;7.208;2023-05-10T12:53:14;17.48;;;9.90;;
78925;SDS011;68321;51.276;7.208;2023-05-10T12:58:08;13.68;;;8.68;;
78925;SDS011;68321;51.276;7.208;2023-05-10T13:00:33;15.57;;;10.77;;
78925;SDS011;68321;51.276;7.208;2023-05-10T13:02:58;19.15;;;10.75;;
78925;SDS011;68321;51.276;7.208;2023-05-10T13:05:24;14.50;;;8.52;;
78925;SDS011;68321;51.276;7.208;2023-05-10T13:07:49;17.63;;;10.25;;
78925;SDS011;68321;51.276;7.208;2023-05-10T13:10:15;14.93;;;9.47;;
78925;SDS011;68321;51.276;7.208;2023-05-10T13:12:41;21.27;;;10.60;;
78925;SDS011;68321;51.276;7.208;2023-05-10T13:15:06;10.10;;;6.23;;
78925;SDS011;68321;51.276;7.208;2023-05-10T13:17:32;16.77;;;11.18;;
78925;SDS011;68321;51.276;7.208;2023-05-10T13:19:57;13.67;;;9.30;;
78925;SDS011;68321;51.276;7.208;2023-05-10T13:22:23;15.60;;;9.07;;
78925;SDS011;68321;51.276;7.208;2023-05-10T13:24:48;13.57;;;8.38;;
78925;SDS011;68321;51.276;7.208;2023-05-10T13:27:13;13.68;;;7.85;;
78925;SDS011;68321;51.276;7.208;2023-05-10T13:29:39;15.60;;;8.93;;
78925;SDS011;68321;51.276;7.208;2023-05-10T13:32:04;12.85;;;7.82;;
78925;SDS011;68321;51.276;7.208;2023-05-10T13:34:30;14.27;;;8.40;;
78925;SDS011;68321;51.276;7.208;2023-05-10T13:36:55;16.27;;;9.33;;
78925;SDS011;68321;51.276;7.208;2023-05-10T13:39:21;15.05;;;9.32;;
78925;SDS011;68321;51.276;7.208;2023-05-10T13:41:46;13.23;;;8.50;;
78925;SDS011;68321;51.276;7.208;2023-05-10T13:44:12;13.95;;;9.50;;
78925;SDS011;68321;51.276;7.208;2023-05-10T13:46:39;15.18;;;10.30;;
78925;SDS011;68321;51.276;7.208;2023-05-10T13:49:05;15.35;;;9.20;;
78925;SDS011;68321;51.276;7.208;2023-05-10T13:51:30;13.80;;;8.43;;
78925;SDS011;68321;51.276;7.208;2023-05-10T13:53:57;14.38;;;8.98;;
78925;SDS011;68321;51.276;7.208;2023-05-10T13:56:23;14.93;;;8.40;;
78925;SDS011;68321;51.276;7.208;2023-05-10T13:58:48;15.07;;;8.38;;
78925;SDS011;68321;51.276;7.208;2023-05-10T14:01:13;12.05;;;8.23;;
78925;SDS011;68321;51.276;7.208;2023-05-10T14:03:39;14.35;;;8.98;;
78925;SDS011;68321;51.276;7.208;2023-05-10T14:06:04;14.68;;;9.75;;
78925;SDS011;68321;51.276;7.208;2023-05-10T14:08:30;17.58;;;9.90;;
78925;SDS011;68321;51.276;7.208;2023-05-10T14:10:55;15.50;;;9.73;;
78925;SDS011;68321;51.276;7.208;2023-05-10T14:13:21;19.45;;;11.60;;
78925;SDS011;68321;51.276;7.208;2023-05-10T14:15:47;16.73;;;11.20;;
78925;SDS011;68321;51.276;7.208;2023-05-10T14:18:12;18.65;;;12.65;;
78925;SDS011;68321;51.276;7.208;2023-05-10T14:20:37;23.50;;;11.95;;
78925;SDS011;68321;51.276;7.208;2023-05-10T14:23:03;17.10;;;10.50;;
78925;SDS011;68321;51.276;7.208;2023-05-10T14:25:28;19.50;;;12.27;;
78925;SDS011;68321;51.276;7.208;2023-05-10T14:27:53;24.83;;;11.87;;
78925;SDS011;68321;51.276;7.208;2023-05-10T14:30:19;20.05;;;12.18;;
78925;SDS011;68321;51.276;7.208;2023-05-10T14:32:45;19.92;;;12.50;;
78925;SDS011;68321;51.276;7.208;2023-05-10T14:35:10;19.70;;;11.82;;
78925;SDS011;68321;51.276;7.208;2023-05-10T14:37:37;24.20;;;11.73;;
78925;SDS011;68321;51.276;7.208;2023-05-10T14:40:03;19.75;;;11.20;;
78925;SDS011;68321;51.276;7.208;2023-05-10T14:42:29;16.23;;;11.40;;
78925;SDS011;68321;51.276;7.208;2023-05-10T14:44:54;17.77;;;10.82;;
78925;SDS011;68321;51.276;7.208;2023-05-10T14:47:20;12.63;;;8.97;;
78925;SDS011;68321;51.276;7.208;2023-05-10T14:49:45;16.13;;;10.03;;
78925;SDS011;68321;51.276;7.208;2023-05-10T14:52:10;16.90;;;11.15;;
78925;SDS011;68321;51.276;7.208;2023-05-10T14:54:37;19.95;;;11.63;;
78925;SDS011;68321;51.276;7.208;2023-05-10T14:57:02;18.98;;;10.85;;
78925;SDS011;68321;51.276;7.208;2023-05-10T14:59:27;17.48;;;11.10;;
78925;SDS011;68321;51.276;7.208;2023-05-10T15:01:53;14.87;;;10.13;;
78925;SDS011;68321;51.276;7.208;2023-05-10T15:04:18;17.63;;;11.80;;
78925;SDS011;68321;51.276;7.208;2023-05-10T15:06:43;17.73;;;10.67;;
78925;SDS011;68321;51.276;7.208;2023-05-10T15:09:09;18.45;;;11.15;;
78925;SDS011;68321;51.276;7.208;2023-05-10T15:11:35;19.13;;;12.57;;
78925;SDS011;68321;51.276;7.208;2023-05-10T15:14:01;19.15;;;11.23;;